createdAt,value
2023-03-12T00:01:33.407Z,3.22
2023-03-12T00:04:03.238Z,3.17
2023-03-12T00:06:29.998Z,3.33
2023-03-12T00:08:56.520Z,3.97
2023-03-12T00:11:23.298Z,3.13
2023-03-12T00:13:53.451Z,3.00
2023-03-12T00:16:20.173Z,3.45
2023-03-12T00:18:50.074Z,3.35
2023-03-12T00:21:16.839Z,3.22
2023-03-12T00:23:43.929Z,3.22
2023-03-12T00:26:13.945Z,3.05
2023-03-12T00:28:40.870Z,3.17
2023-03-12T00:31:20.920Z,3.00
2023-03-12T00:33:50.009Z,2.95
2023-03-12T00:36:17.512Z,3.22
2023-03-12T00:38:44.373Z,2.92
2023-03-12T00:41:10.994Z,2.58
2023-03-12T00:43:37.578Z,2.50
2023-03-12T00:46:04.236Z,2.70
2023-03-12T00:48:31.044Z,2.67
2023-03-12T00:50:57.579Z,2.47
2023-03-12T00:53:24.133Z,2.95
2023-03-12T00:55:50.792Z,2.55
2023-03-12T00:58:17.441Z,3.38
2023-03-12T01:00:44.101Z,2.80
2023-03-12T01:03:10.877Z,2.85
2023-03-12T01:05:40.676Z,3.20
2023-03-12T01:08:10.857Z,2.70
2023-03-12T01:10:40.863Z,3.72
2023-03-12T01:13:07.477Z,2.70
2023-03-12T01:15:34.137Z,2.60
2023-03-12T01:18:01.312Z,2.47
2023-03-12T01:20:27.807Z,3.08
2023-03-12T01:22:54.467Z,2.90
2023-03-12T01:25:21.121Z,2.97
2023-03-12T01:27:47.683Z,2.95
2023-03-12T01:30:14.426Z,2.58
2023-03-12T01:32:41.164Z,2.42
2023-03-12T01:35:07.901Z,3.17
2023-03-12T01:37:34.541Z,3.00
2023-03-12T01:40:01.067Z,2.58
2023-03-12T01:42:27.931Z,3.05
2023-03-12T01:44:56.842Z,2.95
2023-03-12T01:47:24.093Z,3.17
2023-03-12T01:49:51.978Z,2.38
2023-03-12T01:52:21.104Z,3.35
2023-03-12T01:55:01.558Z,2.92
2023-03-12T01:57:34.507Z,3.00
2023-03-12T02:00:05.688Z,2.65
2023-03-12T02:02:40.463Z,2.63
2023-03-12T02:05:17.619Z,2.90
2023-03-12T02:07:44.321Z,2.90
2023-03-12T02:10:11.174Z,2.60
2023-03-12T02:12:37.812Z,3.10
2023-03-12T02:15:04.564Z,2.88
2023-03-12T02:17:31.790Z,2.70
2023-03-12T02:20:17.234Z,3.15
2023-03-12T02:22:46.646Z,3.00
2023-03-12T02:25:32.372Z,2.80
2023-03-12T02:27:59.886Z,2.70
2023-03-12T02:30:27.974Z,3.30
2023-03-12T02:32:55.067Z,2.88
2023-03-12T02:35:22.067Z,2.88
2023-03-12T02:37:52.331Z,3.10
2023-03-12T02:40:31.794Z,2.63
2023-03-12T02:42:58.511Z,2.78
2023-03-12T02:45:25.872Z,3.47
2023-03-12T02:47:52.999Z,3.53
2023-03-12T02:50:19.509Z,3.25
2023-03-12T02:52:46.064Z,3.00
2023-03-12T02:55:12.971Z,3.75
2023-03-12T02:57:42.875Z,3.35
2023-03-12T03:00:13.560Z,3.20
2023-03-12T03:02:45.326Z,4.07
2023-03-12T03:05:12.175Z,3.88
2023-03-12T03:07:39.304Z,3.78
2023-03-12T03:10:06.633Z,3.90
2023-03-12T03:12:34.053Z,3.42
2023-03-12T03:15:01.335Z,3.88
2023-03-12T03:17:28.075Z,3.20
2023-03-12T03:19:54.672Z,3.92
2023-03-12T03:22:22.137Z,3.40
2023-03-12T03:24:49.039Z,3.53
2023-03-12T03:27:16.024Z,3.97
2023-03-12T03:29:44.728Z,3.65
2023-03-12T03:32:11.419Z,3.33
2023-03-12T03:34:39.022Z,3.47
2023-03-12T03:37:05.755Z,3.42
2023-03-12T03:39:34.386Z,4.07
2023-03-12T03:42:00.951Z,4.00
2023-03-12T03:44:30.531Z,3.53
2023-03-12T03:46:57.187Z,4.30
2023-03-12T03:49:23.767Z,3.90
2023-03-12T03:51:51.883Z,4.43
2023-03-12T03:56:52.162Z,3.63
2023-03-12T03:59:19.493Z,3.47
2023-03-12T04:01:47.249Z,4.00
2023-03-12T04:04:14.287Z,3.85
2023-03-12T04:06:40.958Z,3.75
2023-03-12T04:09:07.604Z,3.72
2023-03-12T04:11:35.873Z,3.97
2023-03-12T04:14:04.078Z,3.95
2023-03-12T04:16:32.974Z,4.15
2023-03-12T04:19:00.770Z,4.30
2023-03-12T04:21:27.700Z,4.18
2023-03-12T04:23:54.863Z,4.28
2023-03-12T04:26:25.047Z,4.00
2023-03-12T04:28:52.836Z,4.90
2023-03-12T04:31:19.499Z,4.78
2023-03-12T04:33:49.842Z,4.97
2023-03-12T04:36:17.472Z,5.20
2023-03-12T04:38:47.299Z,5.30
2023-03-12T04:41:16.176Z,4.55
2023-03-12T04:43:48.357Z,4.95
2023-03-12T04:46:16.385Z,4.85
2023-03-12T04:48:44.183Z,5.53
2023-03-12T04:51:12.134Z,5.47
2023-03-12T04:53:40.593Z,6.38
2023-03-12T04:56:09.325Z,6.53
2023-03-12T04:58:36.812Z,6.10
2023-03-12T05:01:04.049Z,6.35
2023-03-12T05:03:30.674Z,6.30
2023-03-12T05:05:58.016Z,6.45
2023-03-12T05:08:25.142Z,6.93
2023-03-12T05:10:51.990Z,7.13
2023-03-12T05:13:20.020Z,7.30
2023-03-12T05:15:47.656Z,6.65
2023-03-12T05:18:15.142Z,7.07
2023-03-12T05:20:41.829Z,8.18
2023-03-12T05:23:08.404Z,8.25
2023-03-12T05:25:38.211Z,7.05
2023-03-12T05:28:04.839Z,7.50
2023-03-12T05:30:31.877Z,8.10
2023-03-12T05:32:58.929Z,7.45
2023-03-12T05:35:25.832Z,8.25
2023-03-12T05:37:52.496Z,7.43
2023-03-12T05:40:19.336Z,8.10
2023-03-12T05:42:46.004Z,8.00
2023-03-12T05:45:12.948Z,8.63
2023-03-12T05:47:44.117Z,8.23
2023-03-12T05:50:11.428Z,9.18
2023-03-12T05:52:37.956Z,8.73
2023-03-12T05:55:04.944Z,8.77
2023-03-12T05:57:31.621Z,8.98
2023-03-12T05:59:59.935Z,9.57
2023-03-12T06:02:26.743Z,9.88
2023-03-12T06:04:53.738Z,11.15
2023-03-12T06:07:20.404Z,9.15
2023-03-12T06:09:47.134Z,9.88
2023-03-12T06:12:14.514Z,10.82
2023-03-12T06:14:41.088Z,11.95
2023-03-12T06:17:07.649Z,11.65
2023-03-12T06:19:34.213Z,11.13
2023-03-12T06:22:00.821Z,10.77
2023-03-12T06:24:28.009Z,11.55
2023-03-12T06:27:00.253Z,11.65
2023-03-12T06:29:26.960Z,11.93
2023-03-12T06:31:53.626Z,11.95
2023-03-12T06:34:20.381Z,11.52
2023-03-12T06:36:46.964Z,12.95
2023-03-12T06:39:13.530Z,12.10
2023-03-12T06:41:41.484Z,13.15
2023-03-12T06:44:08.126Z,14.60
2023-03-12T06:46:34.748Z,13.48
2023-03-12T06:49:01.406Z,12.88
2023-03-12T06:51:28.001Z,13.52
2023-03-12T06:53:54.648Z,12.85
2023-03-12T06:56:21.246Z,11.77
2023-03-12T06:58:48.024Z,12.90
2023-03-12T07:01:14.580Z,13.93
2023-03-12T07:03:41.164Z,13.38
2023-03-12T07:06:13.079Z,13.25
2023-03-12T07:08:39.667Z,13.52
2023-03-12T07:11:06.187Z,12.85
2023-03-12T07:13:32.787Z,11.82
2023-03-12T07:15:59.306Z,10.98
2023-03-12T07:18:26.171Z,9.80
2023-03-12T07:20:53.149Z,9.13
2023-03-12T07:23:20.365Z,8.77
2023-03-12T07:25:47.980Z,7.93
2023-03-12T07:28:14.824Z,7.65
2023-03-12T07:30:41.432Z,7.30
2023-03-12T07:33:10.381Z,7.63
2023-03-12T07:35:39.044Z,7.57
2023-03-12T07:38:06.062Z,7.88
2023-03-12T07:40:32.605Z,6.28
2023-03-12T07:42:59.136Z,6.15
2023-03-12T07:45:26.020Z,6.97
2023-03-12T07:47:52.738Z,6.35
2023-03-12T07:50:19.532Z,6.13
2023-03-12T07:52:46.884Z,9.02
2023-03-12T07:55:13.508Z,9.30
2023-03-12T07:57:40.316Z,8.55
2023-03-12T08:00:08.001Z,7.85
2023-03-12T08:02:38.526Z,7.85
2023-03-12T08:05:05.582Z,7.60
2023-03-12T08:07:32.602Z,8.98
2023-03-12T08:09:59.911Z,8.13
2023-03-12T08:12:26.580Z,8.52
2023-03-12T08:14:53.287Z,7.57
2023-03-12T08:17:20.473Z,7.68
2023-03-12T08:19:47.069Z,8.85
2023-03-12T08:22:13.630Z,8.43
2023-03-12T08:24:40.468Z,6.68
2023-03-12T08:27:06.970Z,8.57
2023-03-12T08:29:33.586Z,9.10
2023-03-12T08:32:05.222Z,7.90
2023-03-12T08:34:32.418Z,6.97
2023-03-12T08:36:58.996Z,7.57
2023-03-12T08:39:25.592Z,8.02
2023-03-12T08:41:55.386Z,7.03
2023-03-12T08:44:22.698Z,7.93
2023-03-12T08:46:49.570Z,7.35
2023-03-12T08:49:16.243Z,7.88
2023-03-12T08:51:42.799Z,7.68
2023-03-12T08:54:09.617Z,7.05
2023-03-12T08:56:38.660Z,8.13
2023-03-12T08:59:05.169Z,7.30
2023-03-12T09:01:31.727Z,7.90
2023-03-12T09:03:58.400Z,7.70
2023-03-12T09:06:25.048Z,7.88
2023-03-12T09:08:51.805Z,7.70
2023-03-12T09:11:18.871Z,8.02
2023-03-12T09:16:32.049Z,9.13
2023-03-12T09:18:58.576Z,8.07
2023-03-12T09:21:25.231Z,8.57
2023-03-12T09:23:51.779Z,9.30
2023-03-12T09:26:18.402Z,9.48
2023-03-12T09:28:45.064Z,9.00
2023-03-12T09:31:12.214Z,10.63
2023-03-12T09:33:39.027Z,12.00
2023-03-12T09:36:06.102Z,11.57
2023-03-12T09:38:35.373Z,9.50
2023-03-12T09:41:03.670Z,10.05
2023-03-12T09:43:34.030Z,11.30
2023-03-12T09:46:01.825Z,8.80
2023-03-12T09:48:32.702Z,8.57
2023-03-12T09:51:01.885Z,9.55
2023-03-12T09:53:31.811Z,8.30
2023-03-12T09:55:59.427Z,9.38
2023-03-12T09:58:28.303Z,7.45
2023-03-12T10:00:59.068Z,8.13
2023-03-12T10:03:41.058Z,8.90
2023-03-12T10:06:16.209Z,9.88
2023-03-12T10:09:01.391Z,9.32
2023-03-12T10:11:50.315Z,10.07
2023-03-12T10:14:32.781Z,9.52
2023-03-12T10:17:04.630Z,8.95
2023-03-12T10:19:31.140Z,10.32
2023-03-12T10:22:26.957Z,9.02
2023-03-12T10:25:05.686Z,8.38
2023-03-12T10:27:34.957Z,9.10
2023-03-12T10:30:02.320Z,7.78
2023-03-12T10:32:41.140Z,7.55
2023-03-12T10:35:15.341Z,8.00
2023-03-12T10:38:00.637Z,7.82
2023-03-12T10:42:53.786Z,7.47
2023-03-12T10:45:39.059Z,6.82
2023-03-12T10:50:34.367Z,8.57
2023-03-12T10:53:19.563Z,8.35
2023-03-12T10:55:57.660Z,9.68
2023-03-12T10:58:24.892Z,7.90
2023-03-12T11:00:58.364Z,9.32
2023-03-12T11:03:26.001Z,8.30
2023-03-12T11:05:56.807Z,11.40
2023-03-12T11:08:24.825Z,9.98
2023-03-12T11:10:51.361Z,9.00
2023-03-12T11:13:23.794Z,10.02
2023-03-12T11:15:51.412Z,9.27
2023-03-12T11:18:21.462Z,9.25
2023-03-12T11:20:50.324Z,8.50
2023-03-12T11:23:18.435Z,8.60
2023-03-12T11:25:50.634Z,8.77
2023-03-12T11:28:25.232Z,9.10
2023-03-12T11:30:53.649Z,8.20
2023-03-12T11:33:20.246Z,8.43
2023-03-12T11:35:55.644Z,8.70
2023-03-12T11:38:27.205Z,6.88
2023-03-12T11:41:05.839Z,6.53
2023-03-12T11:43:45.666Z,8.18
2023-03-12T11:46:18.403Z,8.85
2023-03-12T11:49:03.501Z,8.88
2023-03-12T11:51:36.173Z,6.50
2023-03-12T11:54:21.512Z,8.57
2023-03-12T11:59:29.770Z,7.65
2023-03-12T12:01:56.540Z,7.97
2023-03-12T12:04:35.456Z,6.85
2023-03-12T12:07:13.580Z,8.57
2023-03-12T12:09:51.931Z,7.38
2023-03-12T12:12:36.988Z,9.05
2023-03-12T12:15:06.367Z,6.93
2023-03-12T12:17:36.008Z,7.10
2023-03-12T12:20:10.133Z,7.10
2023-03-12T12:22:49.544Z,8.18
2023-03-12T12:25:34.154Z,7.40
2023-03-12T12:28:06.728Z,7.10
2023-03-12T12:30:42.633Z,7.95
2023-03-12T12:33:19.186Z,6.88
2023-03-12T12:35:46.258Z,7.85
2023-03-12T12:38:16.469Z,8.25
2023-03-12T12:40:47.349Z,7.90
2023-03-12T12:43:19.588Z,7.53
2023-03-12T12:45:48.174Z,7.18
2023-03-12T12:48:17.996Z,8.40
2023-03-12T12:50:47.233Z,8.07
2023-03-12T12:53:28.283Z,8.75
2023-03-12T12:56:15.381Z,8.40
2023-03-12T12:59:04.986Z,8.10
2023-03-12T13:01:32.557Z,7.75
2023-03-12T13:04:17.904Z,7.90
2023-03-12T13:06:54.987Z,7.72
2023-03-12T13:09:23.313Z,7.70
2023-03-12T13:11:51.662Z,7.82
2023-03-12T13:14:44.810Z,7.78
2023-03-12T13:17:23.495Z,8.27
2023-03-12T13:20:00.956Z,8.95
2023-03-12T13:22:40.511Z,6.63
2023-03-12T13:25:25.282Z,7.68
2023-03-12T13:27:59.574Z,6.63
2023-03-12T13:30:35.472Z,6.60
2023-03-12T13:33:02.035Z,6.05
2023-03-12T13:35:31.411Z,7.45
2023-03-12T13:38:12.258Z,6.18
2023-03-12T13:40:51.878Z,6.85
2023-03-12T13:43:37.380Z,6.63
2023-03-12T13:46:10.445Z,5.53
2023-03-12T13:48:44.689Z,6.53
2023-03-12T13:51:21.769Z,8.10
2023-03-12T13:53:49.889Z,5.53
2023-03-12T13:56:20.523Z,6.68
2023-03-12T13:58:55.540Z,6.03
2023-03-12T14:01:24.207Z,6.57
2023-03-12T14:03:53.640Z,6.15
2023-03-12T14:06:21.567Z,6.00
2023-03-12T14:09:00.131Z,7.15
2023-03-12T14:11:29.491Z,6.18
2023-03-12T14:14:02.108Z,6.10
2023-03-12T14:16:34.702Z,7.07
2023-03-12T14:19:02.197Z,5.60
2023-03-12T14:21:32.536Z,6.20
2023-03-12T14:23:59.445Z,6.07
2023-03-12T14:26:31.562Z,7.55
2023-03-12T14:29:04.653Z,5.65
2023-03-12T14:31:32.199Z,7.28
2023-03-12T14:33:58.852Z,6.07
2023-03-12T14:36:48.962Z,6.45
2023-03-12T14:39:30.746Z,7.63
2023-03-12T14:42:01.186Z,8.00
2023-03-12T14:44:29.083Z,8.45
2023-03-12T14:46:58.616Z,7.80
2023-03-12T14:49:25.704Z,9.63
2023-03-12T14:51:53.342Z,9.48
2023-03-12T14:54:21.256Z,9.52
2023-03-12T14:56:47.834Z,10.80
2023-03-12T14:59:23.400Z,10.85
2023-03-12T15:01:50.260Z,9.10
2023-03-12T15:04:17.928Z,10.00
2023-03-12T15:06:48.522Z,9.73
2023-03-12T15:09:19.805Z,10.23
2023-03-12T15:11:51.407Z,8.40
2023-03-12T15:14:17.985Z,8.23
2023-03-12T15:16:44.932Z,9.10
2023-03-12T15:19:13.248Z,9.63
2023-03-12T15:21:40.278Z,9.48
2023-03-12T15:24:07.134Z,10.50
2023-03-12T15:26:36.472Z,7.70
2023-03-12T15:29:27.932Z,8.48
2023-03-12T15:31:56.450Z,9.50
2023-03-12T15:34:32.696Z,9.88
2023-03-12T15:37:04.548Z,9.85
2023-03-12T15:39:35.137Z,8.45
2023-03-12T15:42:02.747Z,8.43
2023-03-12T15:44:33.304Z,6.15
2023-03-12T15:47:07.949Z,8.45
2023-03-12T15:49:35.815Z,10.48
2023-03-12T15:52:22.096Z,7.25
2023-03-12T15:55:00.605Z,8.65
2023-03-12T15:57:27.831Z,7.50
2023-03-12T16:00:07.341Z,7.63
2023-03-12T16:02:35.494Z,6.75
2023-03-12T16:05:02.091Z,7.10
2023-03-12T16:07:28.588Z,7.57
2023-03-12T16:09:55.062Z,7.10
2023-03-12T16:12:21.804Z,7.03
2023-03-12T16:14:49.042Z,6.18
2023-03-12T16:17:17.962Z,5.93
2023-03-12T16:19:44.661Z,5.15
2023-03-12T16:22:11.270Z,4.75
2023-03-12T16:24:37.781Z,4.00
2023-03-12T16:27:07.628Z,3.97
2023-03-12T16:29:35.904Z,4.05
2023-03-12T16:32:03.645Z,4.53
2023-03-12T16:34:30.302Z,4.93
2023-03-12T16:36:56.832Z,3.88
2023-03-12T16:39:23.904Z,3.67
2023-03-12T16:41:50.552Z,4.15
2023-03-12T16:44:19.645Z,4.57
2023-03-12T16:46:46.590Z,3.80
2023-03-12T16:49:14.578Z,3.28
2023-03-12T16:51:41.405Z,3.22
2023-03-12T16:54:11.645Z,4.53
2023-03-12T16:56:41.147Z,3.78
2023-03-12T16:59:11.886Z,3.55
2023-03-12T17:01:38.624Z,3.15
2023-03-12T17:04:05.283Z,3.17
2023-03-12T17:06:33.256Z,3.08
2023-03-12T17:08:59.777Z,3.30
2023-03-12T17:11:27.692Z,3.47
2023-03-12T17:13:58.670Z,3.33
2023-03-12T17:16:25.869Z,3.65
2023-03-12T17:18:52.463Z,2.60
2023-03-12T17:21:19.406Z,2.38
2023-03-12T17:23:46.774Z,2.13
2023-03-12T17:26:13.326Z,2.63
2023-03-12T17:28:40.072Z,3.20
2023-03-12T17:31:06.740Z,3.67
2023-03-12T17:33:33.803Z,4.05
2023-03-12T17:36:05.171Z,3.45
2023-03-12T17:38:31.878Z,3.97
2023-03-12T17:40:59.275Z,3.30
2023-03-12T17:43:25.889Z,3.28
2023-03-12T17:45:53.173Z,4.65
2023-03-12T17:48:19.836Z,3.60
2023-03-12T17:50:46.673Z,4.25
2023-03-12T17:53:13.584Z,2.92
2023-03-12T17:55:40.239Z,3.78
2023-03-12T17:58:06.836Z,3.80
2023-03-12T18:00:33.399Z,3.88
2023-03-12T18:02:59.947Z,3.55
2023-03-12T18:05:26.696Z,4.45
2023-03-12T18:07:53.545Z,4.82
2023-03-12T18:10:20.359Z,3.47
2023-03-12T18:12:47.093Z,4.15
2023-03-12T18:15:14.239Z,4.45
2023-03-12T18:17:41.492Z,3.83
2023-03-12T18:20:12.522Z,4.05
2023-03-12T18:22:39.363Z,3.70
2023-03-12T18:25:06.447Z,3.88
2023-03-12T18:27:33.243Z,4.00
2023-03-12T18:29:59.755Z,4.03
2023-03-12T18:32:26.350Z,3.53
2023-03-12T18:34:53.382Z,4.20
2023-03-12T18:37:20.056Z,3.47
2023-03-12T18:39:48.029Z,4.57
2023-03-12T18:42:14.752Z,3.75
2023-03-12T18:44:41.190Z,3.97
2023-03-12T18:47:07.771Z,4.53
2023-03-12T18:49:34.285Z,3.85
2023-03-12T18:52:00.988Z,4.35
2023-03-12T18:54:27.475Z,3.95
2023-03-12T18:56:54.647Z,3.97
2023-03-12T18:59:21.473Z,3.67
2023-03-12T19:01:48.137Z,5.15
2023-03-12T19:04:18.715Z,3.15
2023-03-12T19:06:51.132Z,4.05
2023-03-12T19:09:18.589Z,5.40
2023-03-12T19:11:46.756Z,4.20
2023-03-12T19:14:14.197Z,4.65
2023-03-12T19:16:40.728Z,4.93
2023-03-12T19:19:07.629Z,4.80
2023-03-12T19:21:34.224Z,3.88
2023-03-12T19:24:00.741Z,4.03
2023-03-12T19:26:27.235Z,4.55
2023-03-12T19:28:54.996Z,4.43
2023-03-12T19:31:21.613Z,3.83
2023-03-12T19:33:48.133Z,4.38
2023-03-12T19:36:14.778Z,4.30
2023-03-12T19:38:41.287Z,4.80
2023-03-12T19:41:09.036Z,4.22
2023-03-12T19:43:36.539Z,3.95
2023-03-12T19:46:03.273Z,3.67
2023-03-12T19:48:30.010Z,3.65
2023-03-12T19:50:56.647Z,4.85
2023-03-12T19:53:24.433Z,4.20
2023-03-12T19:55:51.455Z,4.30
2023-03-12T19:58:18.034Z,4.28
2023-03-12T20:00:45.924Z,4.47
2023-03-12T20:03:12.563Z,3.97
2023-03-12T20:05:42.556Z,4.70
2023-03-12T20:08:09.135Z,4.32
2023-03-12T20:10:35.791Z,3.90
2023-03-12T20:13:02.316Z,4.55
2023-03-12T20:15:29.108Z,5.70
2023-03-12T20:17:58.346Z,4.35
2023-03-12T20:20:25.231Z,4.55
2023-03-12T20:22:51.807Z,3.92
2023-03-12T20:25:18.384Z,4.88
2023-03-12T20:27:45.311Z,4.78
2023-03-12T20:30:12.106Z,3.88
2023-03-12T20:32:38.695Z,4.63
2023-03-12T20:35:05.485Z,4.45
2023-03-12T20:37:32.058Z,5.65
2023-03-12T20:39:58.665Z,4.97
2023-03-12T20:42:25.195Z,5.68
2023-03-12T20:44:51.690Z,5.00
2023-03-12T20:47:18.433Z,5.80
2023-03-12T20:49:45.033Z,5.20
2023-03-12T20:52:11.554Z,5.53
2023-03-12T20:54:38.086Z,6.32
2023-03-12T20:57:04.722Z,6.13
2023-03-12T20:59:31.225Z,5.80
2023-03-12T21:01:57.887Z,6.20
2023-03-12T21:04:24.484Z,5.60
2023-03-12T21:06:51.810Z,5.03
2023-03-12T21:09:18.564Z,5.60
2023-03-12T21:11:45.154Z,5.45
2023-03-12T21:14:11.745Z,5.40
2023-03-12T21:16:38.375Z,5.65
2023-03-12T21:19:04.920Z,5.55
2023-03-12T21:21:32.183Z,6.43
2023-03-12T21:23:58.662Z,5.95
2023-03-12T21:26:25.246Z,6.60
2023-03-12T21:28:51.866Z,7.63
2023-03-12T21:31:18.685Z,5.75
2023-03-12T21:33:45.356Z,6.25
2023-03-12T21:36:12.913Z,6.75
2023-03-12T21:38:40.057Z,6.55
2023-03-12T21:41:07.523Z,5.85
2023-03-12T21:43:34.440Z,5.55
2023-03-12T21:46:04.900Z,5.90
2023-03-12T21:48:31.621Z,6.20
2023-03-12T21:51:01.795Z,6.93
2023-03-12T21:53:28.388Z,5.40
2023-03-12T21:55:56.151Z,4.28
2023-03-12T21:58:22.711Z,4.65
2023-03-12T22:00:49.406Z,4.47
2023-03-12T22:03:16.130Z,4.03
2023-03-12T22:05:42.719Z,4.47
2023-03-12T22:08:09.330Z,4.35
2023-03-12T22:10:35.853Z,4.72
2023-03-12T22:13:02.385Z,5.20
2023-03-12T22:15:28.822Z,3.97
2023-03-12T22:17:55.458Z,4.15
2023-03-12T22:20:22.164Z,4.25
2023-03-12T22:22:48.843Z,4.15
2023-03-12T22:25:15.431Z,5.20
2023-03-12T22:27:41.979Z,5.22
2023-03-12T22:30:08.772Z,4.68
2023-03-12T22:32:35.364Z,3.55
2023-03-12T22:35:01.903Z,5.05
2023-03-12T22:37:28.494Z,4.80
2023-03-12T22:39:58.293Z,5.07
2023-03-12T22:42:24.803Z,4.53
2023-03-12T22:44:51.283Z,4.18
2023-03-12T22:47:17.956Z,5.57
2023-03-12T22:49:44.475Z,3.55
2023-03-12T22:52:11.183Z,4.00
2023-03-12T22:54:37.735Z,5.15
2023-03-12T22:57:04.237Z,3.70
2023-03-12T22:59:30.871Z,4.32
2023-03-12T23:01:57.632Z,3.53
2023-03-12T23:04:24.405Z,3.60
2023-03-12T23:06:51.725Z,3.58
2023-03-12T23:09:19.369Z,4.43
2023-03-12T23:11:45.900Z,4.07
2023-03-12T23:14:12.535Z,5.22
2023-03-12T23:16:39.160Z,3.92
2023-03-12T23:19:05.782Z,4.40
2023-03-12T23:21:32.504Z,5.53
2023-03-12T23:23:59.168Z,4.40
2023-03-12T23:26:27.055Z,3.90
2023-03-12T23:28:57.662Z,4.75
2023-03-12T23:31:24.652Z,5.00
2023-03-12T23:33:51.200Z,5.22
2023-03-12T23:36:19.413Z,4.55
2023-03-12T23:38:46.521Z,4.68
2023-03-12T23:41:26.554Z,4.32
2023-03-12T23:43:53.239Z,5.00
2023-03-12T23:46:19.832Z,5.40
2023-03-12T23:48:47.057Z,4.35
2023-03-12T23:51:15.268Z,4.50
2023-03-12T23:53:42.961Z,4.75
2023-03-12T23:56:12.156Z,4.85
2023-03-12T23:58:38.881Z,4.47
